Time;durP1;ratioP1;P1;durP2;ratioP2;P2;SDS_P1;SDS_P2;PMS_P1;PMS_P2;Temp;Humidity;BMP_temperature;BMP_pressure;BME280_temperature;BME280_humidity;BME280_pressure;Samples;Min_cycle;Max_cycle;Signal;HPM_P1;HPM_P2
2023/09/07 00:01:07;;;;;;;3.40;2.63;;;;;;;16.02;100.00;95026.56;4960373;29;20438;-84
2023/09/07 00:03:33;;;;;;;5.18;2.35;;;;;;;15.96;100.00;95023.22;4943282;29;20039;-84
2023/09/07 00:05:58;;;;;;;3.13;2.47;;;;;;;16.04;100.00;95019.94;4943158;29;20349;-84
2023/09/07 00:08:25;;;;;;;6.03;2.83;;;;;;;16.09;100.00;95025.13;4960493;29;20031;-84
2023/09/07 00:10:51;;;;;;;3.78;2.95;;;;;;;16.05;100.00;95026.00;4943615;29;20034;-84
2023/09/07 00:13:16;;;;;;;4.47;2.83;;;;;;;15.99;100.00;95021.88;4942198;29;20426;-84
2023/09/07 00:15:45;;;;;;;6.55;3.00;;;;;;;15.67;100.00;95019.59;4943624;29;20038;-84
2023/09/07 00:18:11;;;;;;;4.57;2.50;;;;;;;15.76;100.00;95019.75;4960536;29;20055;-84
2023/09/07 00:20:36;;;;;;;5.50;2.53;;;;;;;15.87;100.00;95015.09;4960543;29;20093;-84
2023/09/07 00:23:01;;;;;;;4.93;2.92;;;;;;;16.01;100.00;95009.94;4942723;29;20050;-84
2023/09/07 00:25:27;;;;;;;5.45;2.50;;;;;;;16.12;100.00;95015.88;4940741;29;20086;-84
2023/09/07 00:27:53;;;;;;;4.78;2.80;;;;;;;15.77;100.00;95010.75;4940192;29;20038;-84
2023/09/07 00:30:18;;;;;;;5.07;2.90;;;;;;;15.43;100.00;95016.19;4940258;29;20031;-84
2023/09/07 00:32:44;;;;;;;3.85;2.55;;;;;;;15.21;100.00;95010.34;4957791;29;20038;-84
2023/09/07 00:35:10;;;;;;;4.22;2.72;;;;;;;15.54;100.00;95012.34;4957657;29;20042;-84
2023/09/07 00:37:35;;;;;;;3.05;2.60;;;;;;;15.67;100.00;95009.03;4938945;29;20437;-84
2023/09/07 00:40:00;;;;;;;7.38;2.80;;;;;;;15.85;100.00;95006.69;4940224;29;20050;-85
2023/09/07 00:42:26;;;;;;;8.80;3.00;;;;;;;15.92;100.00;95006.34;4940035;29;20043;-84
2023/09/07 00:44:51;;;;;;;3.70;2.60;;;;;;;15.80;100.00;95007.53;4940569;29;20102;-84
2023/09/07 00:47:17;;;;;;;3.65;2.65;;;;;;;15.74;100.00;95008.69;4939946;29;20500;-84
2023/09/07 00:49:43;;;;;;;3.17;2.30;;;;;;;15.82;100.00;95008.03;4940339;29;20128;-84
2023/09/07 00:52:09;;;;;;;5.45;2.40;;;;;;;15.78;100.00;95008.88;4940156;29;20027;-84
2023/09/07 00:54:38;;;;;;;6.60;2.50;;;;;;;15.78;100.00;95004.38;4939956;29;20326;-84
2023/09/07 00:57:04;;;;;;;3.38;2.63;;;;;;;15.85;100.00;95011.97;4939940;29;20039;-84
2023/09/07 00:59:29;;;;;;;8.35;2.58;;;;;;;15.92;100.00;95003.72;4939855;29;20039;-84
2023/09/07 01:01:55;;;;;;;4.43;2.50;;;;;;;15.99;100.00;94996.22;4946928;29;20068;-84
2023/09/07 01:04:21;;;;;;;4.80;2.70;;;;;;;15.88;100.00;94994.75;4937980;29;20122;-84
2023/09/07 01:07:11;;;;;;;3.20;2.40;;;;;;;15.91;100.00;94999.50;4937999;29;20122;-84
2023/09/07 01:09:40;;;;;;;8.38;2.30;;;;;;;15.80;100.00;95001.47;4904976;29;20039;-84
2023/09/07 01:12:10;;;;;;;12.02;2.85;;;;;;;15.62;100.00;95009.06;4920886;29;20039;-84
2023/09/07 01:14:36;;;;;;;5.60;2.75;;;;;;;15.49;100.00;95000.00;4937784;29;20051;-84
2023/09/07 01:17:04;;;;;;;4.53;2.90;;;;;;;15.46;100.00;94999.75;4920422;29;20538;-84
2023/09/07 01:19:29;;;;;;;4.95;2.50;;;;;;;15.51;100.00;94999.72;4920722;29;20343;-84
2023/09/07 01:21:54;;;;;;;8.50;2.70;;;;;;;15.46;100.00;94997.94;4937893;29;20042;-84
2023/09/07 01:24:20;;;;;;;3.55;2.42;;;;;;;15.72;100.00;95002.09;4920635;29;20039;-84
2023/09/07 01:26:49;;;;;;;4.20;2.58;;;;;;;15.73;100.00;95001.03;4920266;29;20114;-84
2023/09/07 01:29:16;;;;;;;6.82;2.55;;;;;;;15.81;100.00;94998.53;4937459;29;20095;-84
2023/09/07 01:31:42;;;;;;;3.67;2.30;;;;;;;15.50;100.00;95000.78;4920719;29;20052;-84
2023/09/07 01:34:08;;;;;;;5.95;3.28;;;;;;;15.15;100.00;95000.13;4935221;29;20035;-84
2023/09/07 01:36:34;;;;;;;8.13;2.53;;;;;;;14.88;100.00;94989.03;4942152;29;20049;-84
2023/09/07 01:39:00;;;;;;;6.90;2.80;;;;;;;15.06;100.00;94990.19;4958812;29;20043;-84
2023/09/07 01:41:25;;;;;;;3.45;2.53;;;;;;;15.20;100.00;94987.66;4940079;29;20162;-84
2023/09/07 01:43:51;;;;;;;3.42;2.38;;;;;;;15.29;100.00;94992.31;4956398;29;20049;-84
2023/09/07 01:46:16;;;;;;;5.70;2.50;;;;;;;15.40;100.00;94991.91;4956420;29;20046;-84
2023/09/07 01:48:44;;;;;;;4.72;2.63;;;;;;;15.34;100.00;94994.91;4955697;28;20097;-84
2023/09/07 01:51:10;;;;;;;3.40;2.15;;;;;;;15.33;100.00;94988.03;4939236;29;20043;-84
2023/09/07 01:53:35;;;;;;;3.15;2.40;;;;;;;15.26;100.00;94994.44;4939222;29;20326;-84
2023/09/07 01:56:01;;;;;;;7.20;2.97;;;;;;;15.23;100.00;94984.44;4939395;29;20053;-84
2023/09/07 01:58:26;;;;;;;4.32;2.72;;;;;;;15.09;100.00;94983.53;4938789;29;20041;-85
2023/09/07 02:00:58;;;;;;;4.75;2.60;;;;;;;15.30;100.00;94981.47;4956235;29;20049;-84
2023/09/07 02:03:24;;;;;;;4.03;2.90;;;;;;;15.17;100.00;94979.50;4939032;29;20039;-84
2023/09/07 02:05:49;;;;;;;7.75;3.13;;;;;;;15.22;100.00;94977.59;4939006;29;20046;-84
2023/09/07 02:08:15;;;;;;;8.40;2.88;;;;;;;15.26;100.00;94978.59;4938506;29;20031;-84
2023/09/07 02:10:40;;;;;;;4.97;2.50;;;;;;;15.26;100.00;94983.09;4939035;29;20349;-84
2023/09/07 02:13:05;;;;;;;5.72;3.08;;;;;;;15.17;100.00;94982.13;4938710;29;20078;-84
2023/09/07 02:15:31;;;;;;;6.22;2.60;;;;;;;15.40;100.00;94981.34;4938612;29;20031;-85
2023/09/07 02:17:56;;;;;;;3.50;2.50;;;;;;;15.32;100.00;94981.97;4938509;29;20437;-84
2023/09/07 02:20:22;;;;;;;6.05;2.80;;;;;;;15.33;100.00;94978.25;4956009;29;20047;-84
2023/09/07 02:22:47;;;;;;;7.28;2.50;;;;;;;15.44;100.00;94983.41;4956139;29;20045;-84
2023/09/07 02:25:13;;;;;;;5.15;2.63;;;;;;;15.48;100.00;94979.13;4922918;29;20426;-84
2023/09/07 02:27:38;;;;;;;7.07;2.83;;;;;;;15.16;100.00;94981.38;4955531;29;20038;-84
2023/09/07 02:30:04;;;;;;;5.22;2.67;;;;;;;15.19;100.00;94980.81;4955912;29;20402;-84
2023/09/07 02:32:31;;;;;;;5.95;2.97;;;;;;;14.86;100.00;94974.53;4955946;29;20126;-84
2023/09/07 02:34:57;;;;;;;4.38;2.38;;;;;;;14.81;100.00;94975.38;4922697;29;20053;-84
2023/09/07 02:37:23;;;;;;;7.68;2.75;;;;;;;14.80;100.00;94976.44;4938286;29;20115;-84
2023/09/07 02:39:48;;;;;;;10.73;2.67;;;;;;;14.92;100.00;94978.69;4955867;29;20035;-84
2023/09/07 02:42:14;;;;;;;4.80;2.47;;;;;;;14.95;100.00;94978.94;4955762;29;20533;-84
2023/09/07 02:44:39;;;;;;;6.88;2.70;;;;;;;14.68;100.00;94974.16;4955843;29;20041;-84
2023/09/07 02:47:04;;;;;;;7.10;2.90;;;;;;;14.94;100.00;94976.59;4955355;29;20504;-84
2023/09/07 02:49:30;;;;;;;4.85;2.70;;;;;;;15.15;100.00;94979.00;4922614;29;20158;-84
2023/09/07 02:51:56;;;;;;;3.67;2.58;;;;;;;15.32;100.00;94978.56;4938177;29;20105;-84
2023/09/07 02:54:22;;;;;;;5.68;2.47;;;;;;;15.42;100.00;94975.78;4955477;29;20357;-84
2023/09/07 02:56:47;;;;;;;5.13;2.30;;;;;;;15.48;100.00;94977.28;4938119;29;20091;-85
2023/09/07 02:59:13;;;;;;;4.45;2.55;;;;;;;15.51;100.00;94983.88;4955363;28;20031;-84
2023/09/07 03:01:39;;;;;;;3.30;2.50;;;;;;;15.48;100.00;94981.78;4941127;29;20571;-84
2023/09/07 03:04:05;;;;;;;4.72;2.45;;;;;;;15.40;100.00;94977.91;4959288;29;20069;-84
2023/09/07 03:06:31;;;;;;;8.32;2.78;;;;;;;15.36;100.00;94987.47;4959269;29;20039;-85
2023/09/07 03:08:56;;;;;;;3.50;2.60;;;;;;;15.10;100.00;94977.19;4941694;29;20516;-85
2023/09/07 03:11:22;;;;;;;6.63;2.75;;;;;;;15.09;100.00;94979.06;4941670;29;20034;-84
2023/09/07 03:13:47;;;;;;;3.97;2.47;;;;;;;14.98;100.00;94974.97;4941591;29;20031;-84
2023/09/07 03:16:13;;;;;;;6.07;2.83;;;;;;;15.20;100.00;94976.28;4941977;29;20063;-84
2023/09/07 03:18:38;;;;;;;6.50;2.72;;;;;;;15.26;100.00;94980.47;4941265;29;20039;-84
2023/09/07 03:21:04;;;;;;;5.65;3.10;;;;;;;15.27;100.00;94980.16;4958991;29;20035;-84
2023/09/07 03:23:30;;;;;;;5.78;2.88;;;;;;;15.26;100.00;94985.75;4941446;29;20471;-84
2023/09/07 03:25:56;;;;;;;5.85;3.08;;;;;;;15.20;100.00;94989.50;4941861;29;20039;-84
2023/09/07 03:28:21;;;;;;;4.53;2.92;;;;;;;15.02;100.00;94980.47;4925586;29;20380;-84
2023/09/07 03:30:47;;;;;;;6.00;2.63;;;;;;;14.83;100.00;94968.75;4941789;29;20031;-84
2023/09/07 03:33:12;;;;;;;3.67;2.67;;;;;;;14.94;100.00;94973.94;4958767;29;20028;-84
2023/09/07 03:35:38;;;;;;;6.43;2.88;;;;;;;15.15;100.00;94979.00;4941563;29;20410;-84
2023/09/07 03:38:03;;;;;;;5.10;3.00;;;;;;;14.79;100.00;94973.03;4958324;29;20034;-85
2023/09/07 03:40:29;;;;;;;4.82;2.72;;;;;;;14.79;100.00;94973.03;4941214;29;20063;-84
2023/09/07 03:42:54;;;;;;;5.35;3.15;;;;;;;14.62;100.00;94975.25;4941453;29;20094;-85
2023/09/07 03:45:19;;;;;;;8.70;2.72;;;;;;;14.83;100.00;94975.88;4958567;29;20081;-84
2023/09/07 03:47:45;;;;;;;3.30;2.45;;;;;;;14.95;100.00;94975.53;4959836;29;20023;-84
2023/09/07 03:50:10;;;;;;;4.43;2.67;;;;;;;15.18;100.00;94978.44;4943689;29;20035;-84
2023/09/07 03:52:36;;;;;;;5.00;2.80;;;;;;;15.30;100.00;94981.47;4958993;29;20031;-85
2023/09/07 03:55:02;;;;;;;6.32;2.78;;;;;;;15.43;100.00;94984.50;4940300;29;20066;-85
2023/09/07 03:57:27;;;;;;;4.03;3.05;;;;;;;15.43;100.00;94985.28;4957434;29;20093;-85
2023/09/07 03:59:55;;;;;;;4.75;2.45;;;;;;;15.53;100.00;94976.47;4943479;29;20126;-85
2023/09/07 04:02:21;;;;;;;6.85;3.17;;;;;;;15.54;100.00;94983.31;4927873;29;20389;-84
2023/09/07 04:04:50;;;;;;;5.13;3.17;;;;;;;15.53;100.00;94982.50;4943499;29;20027;-84
2023/09/07 04:07:16;;;;;;;5.72;2.75;;;;;;;15.57;100.00;94984.59;4960815;29;20037;-84
2023/09/07 04:09:43;;;;;;;4.97;3.20;;;;;;;15.61;100.00;94975.81;4943744;29;20149;-84
2023/09/07 04:12:08;;;;;;;6.35;3.13;;;;;;;15.57;100.00;94980.09;4959192;28;20066;-89
2023/09/07 04:14:34;;;;;;;4.03;2.70;;;;;;;15.48;100.00;94974.66;4927852;29;20074;-83
2023/09/07 04:17:00;;;;;;;3.30;2.65;;;;;;;15.37;100.00;94979.28;4958769;29;20341;-84
2023/09/07 04:19:25;;;;;;;3.22;2.70;;;;;;;15.41;100.00;94982.13;4908124;29;20024;-83
2023/09/07 04:21:51;;;;;;;3.80;2.88;;;;;;;15.44;100.00;94976.31;4924322;29;20034;-83
2023/09/07 04:24:17;;;;;;;3.47;2.95;;;;;;;15.49;100.00;94986.00;4941202;29;20035;-83
2023/09/07 04:26:42;;;;;;;5.78;2.85;;;;;;;15.47;100.00;94969.66;4941039;29;20028;-83
2023/09/07 04:29:08;;;;;;;3.75;2.47;;;;;;;15.33;100.00;94975.63;4941095;29;20118;-83
2023/09/07 04:31:33;;;;;;;8.27;3.47;;;;;;;15.40;100.00;94978.72;4924183;29;20035;-83
2023/09/07 04:33:59;;;;;;;5.32;2.58;;;;;;;15.43;100.00;94973.94;4908137;29;20046;-83
2023/09/07 04:36:25;;;;;;;7.18;3.08;;;;;;;15.46;100.00;94981.28;4908100;29;20042;-83
2023/09/07 04:38:50;;;;;;;5.80;2.90;;;;;;;15.45;100.00;94977.06;4923622;29;20346;-83
2023/09/07 04:41:16;;;;;;;8.23;3.03;;;;;;;15.52;100.00;94980.16;4907951;29;20035;-83
2023/09/07 04:43:43;;;;;;;8.35;3.60;;;;;;;15.53;100.00;94981.75;4940969;29;20066;-83
2023/09/07 04:46:22;;;;;;;4.75;3.30;;;;;;;15.50;100.00;94988.34;4923957;29;20402;-83
2023/09/07 04:48:47;;;;;;;4.95;3.30;;;;;;;15.53;100.00;94985.16;4923779;29;20098;-83
2023/09/07 04:51:12;;;;;;;5.03;3.03;;;;;;;15.46;100.00;94984.72;4941149;29;20055;-84
2023/09/07 04:53:38;;;;;;;8.43;3.67;;;;;;;15.43;100.00;94987.13;4957742;29;20102;-83
2023/09/07 04:56:05;;;;;;;5.25;3.20;;;;;;;15.38;100.00;94988.78;4938711;29;20067;-88
2023/09/07 04:58:30;;;;;;;7.95;3.63;;;;;;;15.46;100.00;94989.19;4926163;29;20043;-85
2023/09/07 05:01:03;;;;;;;5.85;3.58;;;;;;;15.42;100.00;94986.34;4926809;29;20492;-86
2023/09/07 05:03:29;;;;;;;6.15;3.20;;;;;;;15.47;100.00;94990.78;4942597;29;20039;-85
2023/09/07 05:05:54;;;;;;;5.22;3.03;;;;;;;15.54;100.00;94996.50;4942283;29;20069;-85
2023/09/07 05:08:20;;;;;;;5.10;2.80;;;;;;;15.53;100.00;94993.06;4959782;29;20047;-85
2023/09/07 05:10:45;;;;;;;6.35;3.08;;;;;;;15.63;100.00;95000.06;4942682;29;20027;-85
2023/09/07 05:13:11;;;;;;;7.15;3.53;;;;;;;15.65;100.00;95002.44;4959471;29;20421;-85
2023/09/07 05:15:36;;;;;;;8.10;3.22;;;;;;;15.59;100.00;94993.78;4942322;29;20042;-85
2023/09/07 05:18:01;;;;;;;7.68;3.53;;;;;;;15.55;100.00;94998.84;4942303;29;20031;-85
2023/09/07 05:20:30;;;;;;;7.88;3.22;;;;;;;15.51;100.00;94997.09;4942158;29;20357;-86
2023/09/07 05:22:56;;;;;;;8.10;3.45;;;;;;;15.68;100.00;95000.03;4940974;29;20130;-85
2023/09/07 05:25:22;;;;;;;8.68;4.03;;;;;;;15.63;100.00;94994.78;4942426;29;20050;-85
2023/09/07 05:27:48;;;;;;;7.03;3.30;;;;;;;15.64;100.00;95000.88;4941860;29;20437;-85
2023/09/07 05:30:14;;;;;;;5.78;3.20;;;;;;;15.66;100.00;95004.81;4942383;29;20425;-85
2023/09/07 05:32:41;;;;;;;4.60;3.08;;;;;;;15.74;100.00;95010.53;4942246;29;20066;-85
2023/09/07 05:35:10;;;;;;;5.85;3.63;;;;;;;15.75;100.00;95004.97;4926371;29;20510;-86
2023/09/07 05:37:36;;;;;;;5.03;3.40;;;;;;;15.75;100.00;95002.31;4923876;29;20079;-85
2023/09/07 05:40:03;;;;;;;7.75;3.25;;;;;;;15.77;100.00;95004.66;4958821;29;20034;-84
2023/09/07 05:42:28;;;;;;;7.38;3.70;;;;;;;15.92;100.00;95009.81;4941639;29;20039;-86
2023/09/07 05:44:54;;;;;;;5.90;3.40;;;;;;;15.86;100.00;95005.59;4941966;29;20046;-85
2023/09/07 05:47:19;;;;;;;5.40;3.60;;;;;;;15.93;100.00;95006.09;4941798;29;20446;-84
2023/09/07 05:49:44;;;;;;;8.73;3.75;;;;;;;16.16;100.00;95008.94;4959054;29;20039;-85
2023/09/07 05:52:10;;;;;;;4.80;2.92;;;;;;;16.38;100.00;95008.34;4959055;29;20073;-85
2023/09/07 05:54:35;;;;;;;6.53;3.55;;;;;;;16.59;100.00;95015.16;4941858;29;20074;-85
2023/09/07 05:57:01;;;;;;;5.70;3.15;;;;;;;16.71;100.00;95015.50;4959078;29;20038;-84
2023/09/07 05:59:26;;;;;;;3.85;2.92;;;;;;;16.59;100.00;95015.97;4957647;29;20665;-84
2023/09/07 06:01:51;;;;;;;8.63;3.47;;;;;;;16.67;100.00;95020.56;4957106;29;20039;-84
2023/09/07 06:04:17;;;;;;;6.05;2.65;;;;;;;16.75;100.00;95018.34;4940210;29;20107;-84
2023/09/07 06:06:42;;;;;;;6.15;2.90;;;;;;;16.93;100.00;95019.38;4939883;29;20042;-84
2023/09/07 06:09:07;;;;;;;4.75;3.42;;;;;;;16.79;100.00;95020.13;4939675;29;20441;-84
2023/09/07 06:11:34;;;;;;;4.70;2.88;;;;;;;16.86;100.00;95018.97;4940787;29;20039;-84
2023/09/07 06:14:00;;;;;;;7.72;3.13;;;;;;;16.39;100.00;95025.00;4941434;29;20055;-85
2023/09/07 06:16:25;;;;;;;5.68;3.35;;;;;;;16.53;100.00;95031.13;4958675;29;20122;-84
2023/09/07 06:18:50;;;;;;;5.88;3.38;;;;;;;16.67;100.00;95027.75;4941491;29;20035;-85
2023/09/07 06:21:16;;;;;;;4.40;2.75;;;;;;;17.02;100.00;95030.13;4941503;29;20038;-85
2023/09/07 06:23:42;;;;;;;8.13;3.28;;;;;;;17.21;100.00;95022.88;4958537;29;20453;-85
2023/09/07 06:26:07;;;;;;;3.20;2.53;;;;;;;17.47;100.00;95033.00;4941603;29;20047;-84
2023/09/07 06:28:33;;;;;;;5.53;2.80;;;;;;;17.51;100.00;95027.91;4941409;29;20046;-84
2023/09/07 06:30:59;;;;;;;4.53;3.00;;;;;;;17.64;100.00;95034.25;4958605;29;20178;-84
2023/09/07 06:33:24;;;;;;;5.22;2.55;;;;;;;17.73;100.00;95029.03;4941387;29;20034;-85
2023/09/07 06:35:49;;;;;;;5.68;3.00;;;;;;;17.72;100.00;95032.78;4944322;29;20042;-85
2023/09/07 06:38:15;;;;;;;9.32;3.30;;;;;;;17.90;100.00;95034.50;4962397;29;20333;-85
2023/09/07 06:40:40;;;;;;;3.70;2.80;;;;;;;17.95;100.00;95023.81;4944958;29;20094;-84
2023/09/07 06:43:05;;;;;;;7.28;3.00;;;;;;;17.65;100.00;95023.38;4929002;29;20031;-85
2023/09/07 06:45:37;;;;;;;3.70;2.85;;;;;;;18.05;100.00;95025.50;4962387;29;20038;-85
2023/09/07 06:48:03;;;;;;;7.50;3.55;;;;;;;18.33;100.00;95033.38;4944421;29;20380;-85
2023/09/07 06:50:29;;;;;;;4.60;2.63;;;;;;;18.47;100.00;95030.66;4961986;29;20033;-85
2023/09/07 06:52:54;;;;;;;3.90;2.63;;;;;;;18.55;100.00;95036.34;4945132;29;20118;-85
2023/09/07 06:55:20;;;;;;;7.93;3.28;;;;;;;18.72;100.00;95039.09;4962179;29;20468;-85
2023/09/07 06:57:45;;;;;;;4.05;2.85;;;;;;;18.55;100.00;95038.97;4961963;29;20039;-84
2023/09/07 07:00:11;;;;;;;4.15;2.58;;;;;;;18.84;100.00;95045.72;4962140;29;20086;-85
2023/09/07 07:02:37;;;;;;;3.92;2.70;;;;;;;18.89;100.00;95037.63;4944793;29;20103;-85
2023/09/07 07:05:03;;;;;;;7.70;2.80;;;;;;;19.04;100.00;95034.63;4944944;29;20031;-85
2023/09/07 07:07:29;;;;;;;7.95;3.08;;;;;;;18.67;100.00;95033.13;4944429;29;20457;-84
2023/09/07 07:09:54;;;;;;;7.38;2.75;;;;;;;18.91;100.00;95035.44;4928596;29;20043;-85
2023/09/07 07:12:20;;;;;;;8.15;4.53;;;;;;;18.99;100.00;95042.72;4944700;29;20386;-84
2023/09/07 07:14:46;;;;;;;7.47;4.38;;;;;;;19.05;100.00;95038.84;4928887;29;20027;-85
2023/09/07 07:17:11;;;;;;;6.15;3.55;;;;;;;19.07;100.00;95036.66;4961685;29;20353;-85
2023/09/07 07:19:37;;;;;;;6.45;3.70;;;;;;;19.36;100.00;95048.66;4961430;29;20035;-85
2023/09/07 07:22:02;;;;;;;7.78;4.07;;;;;;;19.47;100.00;95046.53;4961677;29;20032;-85
2023/09/07 07:24:28;;;;;;;6.38;3.75;;;;;;;19.63;100.00;95049.53;4961271;29;20031;-85
2023/09/07 07:26:53;;;;;;;7.80;5.40;;;;;;;19.73;100.00;95045.84;4944133;29;20046;-85
2023/09/07 07:29:19;;;;;;;7.85;4.55;;;;;;;19.80;100.00;95042.72;4961521;29;20086;-85
2023/09/07 07:31:44;;;;;;;11.98;5.22;;;;;;;19.84;100.00;95037.56;4961544;29;20054;-85
2023/09/07 07:34:10;;;;;;;14.13;5.75;;;;;;;19.87;100.00;95040.38;4943968;29;20464;-86
2023/09/07 07:36:35;;;;;;;7.68;5.50;;;;;;;19.89;100.00;95040.09;4928054;29;20027;-85
2023/09/07 07:39:03;;;;;;;11.93;5.72;;;;;;;19.69;100.00;95033.47;4961331;29;20479;-84
2023/09/07 07:41:28;;;;;;;9.43;5.30;;;;;;;19.82;100.00;95043.19;4944231;29;20043;-85
2023/09/07 07:43:54;;;;;;;13.32;6.18;;;;;;;19.82;100.00;95053.84;4960993;29;20469;-85
2023/09/07 07:46:19;;;;;;;6.32;5.05;;;;;;;19.96;100.00;95037.78;4943218;29;20122;-84
2023/09/07 07:48:45;;;;;;;6.97;4.22;;;;;;;20.08;100.00;95047.78;4960826;29;20038;-85
2023/09/07 07:51:10;;;;;;;9.45;4.40;;;;;;;20.23;100.00;95043.09;4960926;29;20027;-85
2023/09/07 07:53:36;;;;;;;11.40;4.60;;;;;;;20.05;100.00;95040.44;4943941;29;20031;-85
2023/09/07 07:56:02;;;;;;;8.40;5.35;;;;;;;20.01;100.00;95047.47;4943974;29;20346;-85
2023/09/07 07:58:28;;;;;;;10.20;6.80;;;;;;;19.93;100.00;95043.72;4960975;29;20348;-85
2023/09/07 08:00:53;;;;;;;14.45;5.82;;;;;;;20.02;100.00;95047.19;4943878;29;20039;-85
2023/09/07 08:03:19;;;;;;;9.55;4.72;;;;;;;19.96;100.00;95044.97;4943804;29;20031;-85
2023/09/07 08:05:44;;;;;;;7.75;4.75;;;;;;;20.14;100.00;95043.09;4943742;29;20463;-85
2023/09/07 08:08:10;;;;;;;6.95;4.30;;;;;;;20.29;100.00;95041.88;4943577;29;20118;-85
2023/09/07 08:10:37;;;;;;;9.35;4.47;;;;;;;20.16;100.00;95041.72;4943437;29;20042;-84
2023/09/07 08:13:02;;;;;;;9.68;5.00;;;;;;;20.23;100.00;95029.81;4960712;29;20030;-85
2023/09/07 08:15:28;;;;;;;9.38;4.57;;;;;;;20.23;100.00;95041.25;4943669;29;20046;-85
2023/09/07 08:17:53;;;;;;;6.55;3.78;;;;;;;20.44;100.00;95040.59;4960328;29;20035;-85
2023/09/07 08:20:19;;;;;;;5.88;3.50;;;;;;;20.94;100.00;95047.31;4960684;29;20035;-85
2023/09/07 08:22:45;;;;;;;8.75;4.25;;;;;;;20.95;100.00;95051.56;4942997;29;20175;-84
2023/09/07 08:25:14;;;;;;;7.25;4.40;;;;;;;21.15;100.00;95054.63;4943597;29;20023;-85
2023/09/07 08:27:44;;;;;;;6.93;5.05;;;;;;;21.20;100.00;95057.13;4943525;29;20448;-85
2023/09/07 08:30:11;;;;;;;8.77;5.05;;;;;;;20.75;100.00;95059.06;4943825;29;20058;-85
2023/09/07 08:32:38;;;;;;;12.73;5.05;;;;;;;21.12;100.00;95055.28;4943045;29;20066;-85
2023/09/07 08:35:06;;;;;;;7.82;4.35;;;;;;;21.58;100.00;95052.91;4943427;29;20376;-85
2023/09/07 08:37:33;;;;;;;8.35;4.38;;;;;;;21.28;100.00;95064.31;4943394;29;20031;-85
2023/09/07 08:39:59;;;;;;;12.65;4.40;;;;;;;21.53;100.00;95050.44;4960245;29;20035;-85
2023/09/07 08:42:25;;;;;;;7.40;3.95;;;;;;;21.79;100.00;95055.66;4943193;29;20038;-85
2023/09/07 08:44:51;;;;;;;8.85;4.13;;;;;;;21.92;100.00;95053.06;4943028;29;20437;-84
2023/09/07 08:47:17;;;;;;;13.63;4.13;;;;;;;21.97;100.00;95055.56;4942872;29;20119;-85
2023/09/07 08:49:45;;;;;;;4.70;3.40;;;;;;;21.96;100.00;95052.09;4942876;29;20090;-85
2023/09/07 08:52:10;;;;;;;6.18;3.63;;;;;;;22.05;100.00;95046.72;4943056;29;20037;-85
2023/09/07 08:54:37;;;;;;;9.95;2.88;;;;;;;22.09;100.00;95049.53;4926729;29;20035;-85
2023/09/07 08:57:06;;;;;;;6.20;3.92;;;;;;;22.01;100.00;95045.81;4942455;28;20361;-85
2023/09/07 08:59:31;;;;;;;8.02;3.42;;;;;;;21.95;100.00;95039.09;4959045;29;20345;-84
2023/09/07 09:01:58;;;;;;;7.40;3.22;;;;;;;21.85;100.00;95048.25;4959585;29;20023;-85
2023/09/07 09:04:24;;;;;;;6.63;3.80;;;;;;;22.27;100.00;95036.84;4942757;29;20114;-84
2023/09/07 09:06:52;;;;;;;8.05;3.22;;;;;;;22.27;100.00;95042.94;4959407;29;20101;-85
2023/09/07 09:09:24;;;;;;;3.38;2.63;;;;;;;22.32;100.00;95036.63;4942873;29;20034;-84
2023/09/07 09:11:49;;;;;;;6.07;2.97;;;;;;;22.41;100.00;95037.38;4942669;29;20437;-85
2023/09/07 09:14:18;;;;;;;5.07;2.63;;;;;;;22.44;100.00;95041.25;4942262;29;20122;-84
2023/09/07 09:16:49;;;;;;;6.25;2.75;;;;;;;22.40;100.00;95038.47;4942694;29;20031;-84
2023/09/07 09:19:14;;;;;;;3.60;2.53;;;;;;;22.48;100.00;95036.88;4942245;29;20027;-85
2023/09/07 09:21:40;;;;;;;4.57;3.08;;;;;;;22.59;92.99;95038.03;4942505;29;20058;-85
2023/09/07 09:24:09;;;;;;;5.63;3.10;;;;;;;22.30;96.67;95036.19;4926199;29;20043;-84
2023/09/07 09:26:37;;;;;;;5.88;2.58;;;;;;;22.51;97.89;95046.09;4942309;29;20094;-85
2023/09/07 09:29:11;;;;;;;4.95;2.58;;;;;;;22.88;99.90;95043.56;5114458;27;20847;-83
2023/09/07 09:31:37;;;;;;;8.20;2.67;;;;;;;22.99;100.00;95038.59;5114874;28;20111;-83
2023/09/07 09:34:02;;;;;;;6.53;2.67;;;;;;;23.19;98.69;95039.63;5114562;28;20405;-83
2023/09/07 09:36:34;;;;;;;4.55;2.92;;;;;;;23.18;100.00;95038.06;5113515;28;20038;-83
2023/09/07 09:38:59;;;;;;;5.10;2.88;;;;;;;23.08;100.00;95038.50;5113469;28;20047;-83
2023/09/07 09:41:24;;;;;;;5.57;3.33;;;;;;;22.90;98.28;95037.91;5113465;28;20074;-83
2023/09/07 09:43:51;;;;;;;4.32;3.03;;;;;;;22.93;98.34;95046.03;5113491;28;20035;-83
2023/09/07 09:46:17;;;;;;;4.95;2.97;;;;;;;23.30;100.00;95038.13;5113395;28;20038;-83
2023/09/07 09:48:43;;;;;;;5.28;2.97;;;;;;;23.32;90.79;95039.69;5112699;28;20024;-83
2023/09/07 09:51:11;;;;;;;6.47;2.78;;;;;;;23.43;93.35;95035.47;5112985;28;20036;-83
2023/09/07 09:53:36;;;;;;;4.82;2.90;;;;;;;23.64;94.26;95040.69;5113275;28;20036;-84
2023/09/07 09:56:02;;;;;;;4.97;2.83;;;;;;;23.55;86.24;95034.69;5114085;28;20042;-83
2023/09/07 09:58:28;;;;;;;4.88;2.80;;;;;;;23.10;86.09;95039.72;5110800;28;20071;-83
2023/09/07 10:01:00;;;;;;;7.07;3.50;;;;;;;23.06;85.69;95038.03;5112584;28;20494;-83
2023/09/07 10:03:33;;;;;;;6.10;2.67;;;;;;;22.82;81.45;95031.53;5112013;28;20380;-83
2023/09/07 10:06:12;;;;;;;10.05;3.45;;;;;;;23.09;83.42;95032.03;5112732;28;20030;-82
2023/09/07 10:08:37;;;;;;;5.90;2.60;;;;;;;23.03;80.12;95023.47;5112514;28;20023;-83
2023/09/07 10:11:09;;;;;;;6.40;2.55;;;;;;;22.97;84.14;95028.25;5112966;28;20042;-83
2023/09/07 10:13:35;;;;;;;5.68;2.70;;;;;;;22.86;78.63;95022.53;5112935;28;20115;-83
2023/09/07 10:16:08;;;;;;;7.20;2.95;;;;;;;22.65;81.89;95019.91;5112841;28;20110;-83
2023/09/07 10:18:38;;;;;;;3.72;2.90;;;;;;;22.58;86.52;95022.31;5112814;28;20031;-83
2023/09/07 10:21:04;;;;;;;5.95;3.03;;;;;;;23.15;88.62;95020.03;5113036;28;20446;-83
2023/09/07 10:23:36;;;;;;;7.45;2.90;;;;;;;23.28;85.77;95026.97;5112626;28;20114;-83
2023/09/07 10:26:04;;;;;;;4.30;2.83;;;;;;;23.30;77.20;95021.28;5112638;28;20035;-83
2023/09/07 10:28:29;;;;;;;6.38;2.85;;;;;;;23.48;77.19;95021.09;5112357;28;20126;-83
2023/09/07 10:31:02;;;;;;;7.82;2.60;;;;;;;23.43;72.29;95020.19;5104330;28;20122;-82
2023/09/07 10:33:27;;;;;;;6.43;2.83;;;;;;;23.44;79.75;95026.31;5104445;28;20043;-83
2023/09/07 10:35:53;;;;;;;8.68;3.72;;;;;;;23.43;82.67;95014.06;5092976;28;20032;-84
2023/09/07 10:38:18;;;;;;;9.82;3.42;;;;;;;23.51;81.67;95015.84;5101467;28;20024;-83
2023/09/07 10:40:45;;;;;;;10.15;3.97;;;;;;;23.48;82.63;95011.16;5098149;28;20039;-83
2023/09/07 10:43:10;;;;;;;5.78;3.42;;;;;;;23.50;85.03;95013.50;5098729;28;20472;-83
2023/09/07 10:45:36;;;;;;;6.68;3.60;;;;;;;23.78;86.09;95002.91;5098409;28;20038;-83
2023/09/07 10:48:03;;;;;;;5.82;3.33;;;;;;;23.91;85.94;95006.34;5081535;28;20128;-83
2023/09/07 10:50:29;;;;;;;7.88;4.43;;;;;;;23.72;85.63;95005.00;5098528;28;20095;-83
2023/09/07 10:52:55;;;;;;;9.98;4.80;;;;;;;23.56;87.67;95012.97;5098372;28;20106;-83
2023/09/07 10:55:20;;;;;;;6.82;3.70;;;;;;;23.90;88.29;95004.78;5098347;28;20035;-83
2023/09/07 10:57:47;;;;;;;11.23;3.80;;;;;;;24.06;87.99;95002.22;5098062;28;20107;-83
2023/09/07 11:00:13;;;;;;;9.63;4.13;;;;;;;24.33;86.63;95001.81;5098414;28;20030;-83
2023/09/07 11:02:40;;;;;;;6.32;3.95;;;;;;;24.46;86.51;95007.88;5098300;28;20099;-83
2023/09/07 11:05:06;;;;;;;10.07;4.65;;;;;;;23.95;83.88;94996.53;5099347;28;20097;-83
2023/09/07 11:07:33;;;;;;;6.22;4.13;;;;;;;23.92;86.70;94986.50;5097820;28;20456;-83
2023/09/07 11:09:58;;;;;;;8.82;4.18;;;;;;;23.92;89.45;94991.84;5098194;28;20039;-83
2023/09/07 11:12:24;;;;;;;12.75;4.35;;;;;;;24.10;85.58;94991.59;5098163;28;20024;-84
2023/09/07 11:14:53;;;;;;;7.97;3.28;;;;;;;23.91;88.74;94992.19;5098379;28;20448;-83
2023/09/07 11:17:19;;;;;;;6.97;2.97;;;;;;;24.53;85.53;94987.44;5097925;28;20028;-83
2023/09/07 11:19:44;;;;;;;6.03;3.28;;;;;;;24.23;82.71;94984.31;5097652;28;20123;-83
2023/09/07 11:22:10;;;;;;;5.63;3.22;;;;;;;24.31;81.04;94983.41;5097821;28;20052;-83